ANZ173 NZAA-YPPH
Flight info
| Callsign | ANZ173 |
|---|---|
| Flight time | 6h 26m |
| Altitude | 36000 |
| Route | PEBLU N759 ML Q158 CRENA/N0472F380 Q158 MALUP |
| Aircraft | B77W/H-SDE1E2E3FGHIJ2J3J4J5M1RWXY/LB1D1 |
Departure
| Time | 2026-05-06 11:01 |
|---|---|
| Airport | Auckland International Airport (NZAA) |
Arrival
| Time | 2026-05-06 17:27 |
|---|---|
| Airport | Perth International Airport (YPPH) |
| Time | Latitude | Longitude | Altitude | Speed | Heading |
|---|---|---|---|---|---|
| 2026-05-06 10:33 | -37.00834 | 174.78143 | 30 ft | 0 kts | 40° |
| 2026-05-06 10:51 | -37.00837 | 174.78141 | 30 ft | 2 kts | 40° |
| 2026-05-06 10:51 | -37.00857 | 174.78120 | 29 ft | 4 kts | 38° |
| 2026-05-06 10:52 | -37.00876 | 174.78100 | 28 ft | 4 kts | 48° |
| 2026-05-06 10:52 | -37.00887 | 174.78075 | 28 ft | 4 kts | 104° |
| 2026-05-06 10:52 | -37.00873 | 174.78050 | 27 ft | 4 kts | 146° |
| 2026-05-06 10:52 | -37.00849 | 174.78034 | 30 ft | 4 kts | 158° |
| 2026-05-06 10:53 | -37.00835 | 174.78027 | 30 ft | 0 kts | 161° |
| 2026-05-06 10:55 | -37.00837 | 174.78028 | 30 ft | 2 kts | 161° |
| 2026-05-06 10:55 | -37.00888 | 174.78051 | 30 ft | 14 kts | 160° |
| 2026-05-06 10:56 | -37.00989 | 174.78094 | 30 ft | 13 kts | 161° |
| 2026-05-06 10:56 | -37.01066 | 174.78054 | 30 ft | 14 kts | 242° |
| 2026-05-06 10:56 | -37.01098 | 174.77942 | 30 ft | 14 kts | 251° |
| 2026-05-06 10:56 | -37.01129 | 174.77829 | 30 ft | 14 kts | 251° |
| 2026-05-06 10:57 | -37.01160 | 174.77717 | 30 ft | 14 kts | 251° |
| 2026-05-06 10:57 | -37.01211 | 174.77643 | 30 ft | 11 kts | 188° |
| 2026-05-06 10:57 | -37.01283 | 174.77614 | 30 ft | 12 kts | 224° |
| 2026-05-06 10:57 | -37.01317 | 174.77523 | 30 ft | 12 kts | 251° |
| 2026-05-06 10:58 | -37.01344 | 174.77422 | 30 ft | 12 kts | 251° |
| 2026-05-06 10:58 | -37.01373 | 174.77319 | 30 ft | 12 kts | 251° |
| 2026-05-06 10:58 | -37.01401 | 174.77216 | 30 ft | 12 kts | 251° |
| 2026-05-06 10:58 | -37.01442 | 174.77124 | 30 ft | 13 kts | 216° |
| 2026-05-06 10:59 | -37.01526 | 174.77092 | 30 ft | 13 kts | 189° |
| 2026-05-06 10:59 | -37.01596 | 174.77086 | 30 ft | 9 kts | 171° |
| 2026-05-06 10:59 | -37.01613 | 174.77134 | 30 ft | 7 kts | 87° |
| 2026-05-06 10:59 | -37.01604 | 174.77182 | 30 ft | 0 kts | 71° |
| 2026-05-06 11:00 | -37.01566 | 174.77320 | 31 ft | 51 kts | 71° |
| 2026-05-06 11:00 | -37.01355 | 174.78082 | 31 ft | 131 kts | 71° |
| 2026-05-06 11:01 | -37.00991 | 174.79405 | 111 ft | 182 kts | 70° |
| 2026-05-06 11:01 | -37.00559 | 174.80946 | 749 ft | 192 kts | 69° |
| 2026-05-06 11:01 | -37.00103 | 174.82521 | 1643 ft | 191 kts | 65° |
| 2026-05-06 11:01 | -36.99654 | 174.84077 | 2376 ft | 201 kts | 66° |
| 2026-05-06 11:02 | -36.99167 | 174.85847 | 2754 ft | 226 kts | 67° |
| 2026-05-06 11:02 | -36.98643 | 174.87767 | 3402 ft | 240 kts | 67° |
| 2026-05-06 11:02 | -36.98087 | 174.89795 | 4136 ft | 252 kts | 67° |
| 2026-05-06 11:02 | -36.97507 | 174.91892 | 4982 ft | 260 kts | 67° |
| 2026-05-06 11:03 | -36.96902 | 174.94062 | 5825 ft | 266 kts | 67° |
| 2026-05-06 11:03 | -36.96286 | 174.96268 | 6723 ft | 271 kts | 67° |
| 2026-05-06 11:03 | -36.95657 | 174.98514 | 7562 ft | 275 kts | 68° |
| 2026-05-06 11:03 | -36.95304 | 175.00873 | 8268 ft | 285 kts | 91° |
| 2026-05-06 11:04 | -36.95887 | 175.03261 | 9062 ft | 295 kts | 121° |
| 2026-05-06 11:04 | -36.97343 | 175.05028 | 9908 ft | 300 kts | 148° |
| 2026-05-06 11:04 | -36.99252 | 175.06107 | 10707 ft | 304 kts | 159° |
| 2026-05-06 11:04 | -37.01317 | 175.07004 | 11060 ft | 326 kts | 164° |
| 2026-05-06 11:05 | -37.03639 | 175.07293 | 11232 ft | 351 kts | 189° |
| 2026-05-06 11:05 | -37.05963 | 175.06189 | 11682 ft | 366 kts | 217° |
| 2026-05-06 11:05 | -37.07676 | 175.03849 | 12526 ft | 370 kts | 243° |
| 2026-05-06 11:05 | -37.08586 | 175.00851 | 13401 ft | 371 kts | 254° |
| 2026-05-06 11:06 | -37.09363 | 174.97729 | 14307 ft | 380 kts | 253° |
| 2026-05-06 11:06 | -37.10172 | 174.94605 | 15295 ft | 382 kts | 253° |
| 2026-05-06 11:06 | -37.11025 | 174.91443 | 16354 ft | 384 kts | 252° |
| 2026-05-06 11:06 | -37.11901 | 174.88262 | 17316 ft | 389 kts | 251° |
| 2026-05-06 11:07 | -37.12793 | 174.85042 | 18231 ft | 395 kts | 251° |
| 2026-05-06 11:07 | -37.13701 | 174.81764 | 19090 ft | 400 kts | 251° |
| 2026-05-06 11:07 | -37.14701 | 174.78495 | 19925 ft | 404 kts | 248° |
| 2026-05-06 11:07 | -37.15820 | 174.75244 | 20760 ft | 408 kts | 246° |
| 2026-05-06 11:08 | -37.16983 | 174.71978 | 21581 ft | 412 kts | 246° |
| 2026-05-06 11:08 | -37.18154 | 174.68683 | 22370 ft | 417 kts | 246° |
| 2026-05-06 11:08 | -37.19330 | 174.65336 | 23133 ft | 422 kts | 247° |
| 2026-05-06 11:08 | -37.20508 | 174.61945 | 23935 ft | 426 kts | 247° |
| 2026-05-06 11:09 | -37.21671 | 174.58571 | 24592 ft | 430 kts | 247° |
| 2026-05-06 11:09 | -37.22856 | 174.55116 | 25254 ft | 433 kts | 247° |
| 2026-05-06 11:09 | -37.24049 | 174.51629 | 25901 ft | 437 kts | 247° |
| 2026-05-06 11:09 | -37.25253 | 174.48111 | 26533 ft | 440 kts | 246° |
| 2026-05-06 11:10 | -37.26468 | 174.44557 | 27148 ft | 444 kts | 246° |
| 2026-05-06 11:10 | -37.27682 | 174.40974 | 27742 ft | 448 kts | 248° |
| 2026-05-06 11:10 | -37.28755 | 174.37291 | 28327 ft | 452 kts | 251° |
| 2026-05-06 11:10 | -37.29712 | 174.33512 | 28894 ft | 456 kts | 252° |
| 2026-05-06 11:11 | -37.30627 | 174.29683 | 29444 ft | 460 kts | 252° |
| 2026-05-06 11:11 | -37.31531 | 174.25865 | 30031 ft | 462 kts | 253° |
| 2026-05-06 11:11 | -37.32460 | 174.21977 | 30401 ft | 468 kts | 252° |
| 2026-05-06 11:11 | -37.33409 | 174.18062 | 30884 ft | 469 kts | 252° |
| 2026-05-06 11:12 | -37.34366 | 174.14164 | 31569 ft | 464 kts | 252° |
| 2026-05-06 11:12 | -37.35316 | 174.10331 | 32419 ft | 455 kts | 252° |
| 2026-05-06 11:12 | -37.36252 | 174.06571 | 33279 ft | 447 kts | 252° |
| 2026-05-06 11:12 | -37.37173 | 174.02874 | 34053 ft | 440 kts | 252° |
| 2026-05-06 11:13 | -37.38055 | 173.99329 | 34641 ft | 437 kts | 252° |
| 2026-05-06 11:13 | -37.38953 | 173.95718 | 34950 ft | 439 kts | 252° |
| 2026-05-06 11:13 | -37.39866 | 173.92038 | 35221 ft | 442 kts | 252° |
| 2026-05-06 11:13 | -37.40783 | 173.88333 | 35482 ft | 445 kts | 253° |
| 2026-05-06 11:14 | -37.41700 | 173.84623 | 35821 ft | 445 kts | 253° |
| 2026-05-06 11:14 | -37.42616 | 173.80907 | 36224 ft | 444 kts | 253° |
| 2026-05-06 11:14 | -37.43534 | 173.77179 | 36348 ft | 449 kts | 253° |
| 2026-05-06 11:15 | -37.45405 | 173.69559 | 36444 ft | 461 kts | 253° |
| 2026-05-06 11:15 | -37.46348 | 173.65712 | 36786 ft | 460 kts | 253° |
| 2026-05-06 11:15 | -37.47294 | 173.61847 | 36863 ft | 465 kts | 253° |
| 2026-05-06 11:16 | -37.49197 | 173.54051 | 36998 ft | 472 kts | 253° |
| 2026-05-06 11:16 | -37.50160 | 173.50100 | 37198 ft | 472 kts | 253° |
| 2026-05-06 11:16 | -37.51120 | 173.46152 | 37479 ft | 470 kts | 253° |
| 2026-05-06 11:16 | -37.52074 | 173.42220 | 37735 ft | 469 kts | 253° |
| 2026-05-06 11:17 | -37.53024 | 173.38302 | 37947 ft | 469 kts | 253° |
| 2026-05-06 11:17 | -37.53975 | 173.34372 | 38141 ft | 469 kts | 253° |
| 2026-05-06 11:17 | -37.54925 | 173.30438 | 38239 ft | 470 kts | 253° |
| 2026-05-06 11:18 | -37.56814 | 173.22599 | 38325 ft | 471 kts | 253° |
| 2026-05-06 11:18 | -37.58710 | 173.14704 | 38319 ft | 470 kts | 253° |
| 2026-05-06 11:19 | -37.60592 | 173.06843 | 38320 ft | 467 kts | 253° |
| 2026-05-06 11:19 | -37.62430 | 172.99139 | 38313 ft | 465 kts | 253° |
| 2026-05-06 11:20 | -37.64287 | 172.91331 | 38314 ft | 464 kts | 253° |
| 2026-05-06 11:20 | -37.66123 | 172.83588 | 38310 ft | 463 kts | 253° |
| 2026-05-06 11:21 | -37.67964 | 172.75797 | 38311 ft | 463 kts | 254° |
| 2026-05-06 11:21 | -37.69800 | 172.67999 | 38307 ft | 463 kts | 254° |
| 2026-05-06 11:22 | -37.71633 | 172.60192 | 38304 ft | 464 kts | 254° |
| 2026-05-06 11:22 | -37.73461 | 172.52380 | 38307 ft | 465 kts | 254° |
| 2026-05-06 11:23 | -37.75275 | 172.44598 | 38304 ft | 465 kts | 254° |
| 2026-05-06 11:23 | -37.77098 | 172.36757 | 38304 ft | 465 kts | 254° |
| 2026-05-06 11:24 | -37.78915 | 172.28914 | 38299 ft | 464 kts | 254° |
| 2026-05-06 11:24 | -37.80711 | 172.21132 | 38294 ft | 464 kts | 254° |
| 2026-05-06 11:25 | -37.82511 | 172.13310 | 38298 ft | 463 kts | 254° |
| 2026-05-06 11:25 | -37.84306 | 172.05483 | 38293 ft | 463 kts | 255° |
| 2026-05-06 11:26 | -37.86067 | 171.97778 | 38291 ft | 463 kts | 255° |
| 2026-05-06 11:26 | -37.87850 | 171.89953 | 38286 ft | 463 kts | 255° |
| 2026-05-06 11:27 | -37.89615 | 171.82176 | 38285 ft | 463 kts | 255° |
| 2026-05-06 11:27 | -37.91385 | 171.74353 | 38283 ft | 463 kts | 255° |
| 2026-05-06 11:28 | -37.93154 | 171.66510 | 38275 ft | 462 kts | 255° |
| 2026-05-06 11:28 | -37.94912 | 171.58686 | 38273 ft | 462 kts | 255° |
| 2026-05-06 11:29 | -37.96666 | 171.50854 | 38273 ft | 462 kts | 255° |
| 2026-05-06 11:29 | -37.98402 | 171.43072 | 38269 ft | 462 kts | 255° |
| 2026-05-06 11:30 | -38.00143 | 171.35244 | 38266 ft | 462 kts | 255° |
| 2026-05-06 11:30 | -38.01881 | 171.27404 | 38268 ft | 462 kts | 256° |
| 2026-05-06 11:31 | -38.03614 | 171.19559 | 38260 ft | 462 kts | 256° |
| 2026-05-06 11:31 | -38.05329 | 171.11762 | 38258 ft | 462 kts | 256° |
| 2026-05-06 11:32 | -38.07053 | 171.03905 | 38253 ft | 462 kts | 256° |
| 2026-05-06 11:32 | -38.08744 | 170.96167 | 38254 ft | 462 kts | 256° |
| 2026-05-06 11:33 | -38.10454 | 170.88311 | 38257 ft | 462 kts | 257° |
| 2026-05-06 11:33 | -38.11582 | 170.80370 | 38250 ft | 460 kts | 264° |
| 2026-05-06 11:34 | -38.12298 | 170.72308 | 38245 ft | 459 kts | 264° |
| 2026-05-06 11:34 | -38.13012 | 170.64248 | 38239 ft | 459 kts | 264° |
| 2026-05-06 11:35 | -38.13738 | 170.56194 | 38230 ft | 459 kts | 264° |
| 2026-05-06 11:35 | -38.14464 | 170.48200 | 38237 ft | 458 kts | 264° |
| 2026-05-06 11:36 | -38.15191 | 170.40164 | 38228 ft | 457 kts | 264° |
| 2026-05-06 11:36 | -38.15909 | 170.32150 | 38229 ft | 457 kts | 264° |
| 2026-05-06 11:37 | -38.16621 | 170.24134 | 38227 ft | 456 kts | 264° |
| 2026-05-06 11:37 | -38.17328 | 170.16123 | 38240 ft | 456 kts | 265° |
| 2026-05-06 11:38 | -38.18024 | 170.08171 | 38214 ft | 455 kts | 265° |
| 2026-05-06 11:38 | -38.18717 | 170.00176 | 38219 ft | 455 kts | 265° |
| 2026-05-06 11:39 | -38.19394 | 169.92313 | 38222 ft | 454 kts | 265° |
| 2026-05-06 11:39 | -38.20075 | 169.84330 | 38205 ft | 454 kts | 265° |
| 2026-05-06 11:40 | -38.20747 | 169.76404 | 38223 ft | 454 kts | 265° |
| 2026-05-06 11:40 | -38.21416 | 169.68443 | 38202 ft | 453 kts | 265° |
| 2026-05-06 11:41 | -38.22078 | 169.60489 | 38195 ft | 452 kts | 265° |
| 2026-05-06 11:41 | -38.22734 | 169.52551 | 38199 ft | 451 kts | 266° |
| 2026-05-06 11:42 | -38.23384 | 169.44621 | 38202 ft | 450 kts | 266° |
| 2026-05-06 11:42 | -38.24024 | 169.36756 | 38199 ft | 449 kts | 266° |
| 2026-05-06 11:43 | -38.24659 | 169.28868 | 38184 ft | 448 kts | 266° |
| 2026-05-06 11:43 | -38.25288 | 169.20996 | 38184 ft | 447 kts | 266° |
| 2026-05-06 11:44 | -38.26219 | 169.09218 | 38174 ft | 446 kts | 266° |
| 2026-05-06 11:44 | -38.26828 | 169.01426 | 38174 ft | 445 kts | 266° |
| 2026-05-06 11:45 | -38.27427 | 168.93702 | 38170 ft | 446 kts | 266° |
| 2026-05-06 11:45 | -38.28030 | 168.85851 | 38169 ft | 446 kts | 266° |
| 2026-05-06 11:46 | -38.28629 | 168.77992 | 38169 ft | 446 kts | 266° |
| 2026-05-06 11:46 | -38.29222 | 168.70135 | 38177 ft | 447 kts | 266° |
| 2026-05-06 11:47 | -38.29806 | 168.62325 | 38165 ft | 446 kts | 267° |
| 2026-05-06 11:47 | -38.30388 | 168.54480 | 38157 ft | 444 kts | 267° |
| 2026-05-06 11:48 | -38.30963 | 168.46657 | 38156 ft | 443 kts | 267° |
| 2026-05-06 11:48 | -38.31531 | 168.38850 | 38164 ft | 442 kts | 267° |
| 2026-05-06 11:49 | -38.32090 | 168.31101 | 38159 ft | 442 kts | 268° |
| 2026-05-06 11:49 | -38.32648 | 168.23304 | 38148 ft | 442 kts | 268° |
| 2026-05-06 11:50 | -38.33198 | 168.15521 | 38141 ft | 441 kts | 268° |
| 2026-05-06 11:50 | -38.33743 | 168.07735 | 38139 ft | 441 kts | 268° |
| 2026-05-06 11:51 | -38.34283 | 167.99965 | 38139 ft | 441 kts | 268° |
| 2026-05-06 11:51 | -38.34808 | 167.92330 | 38135 ft | 441 kts | 268° |
| 2026-05-06 11:52 | -38.35338 | 167.84539 | 38134 ft | 441 kts | 268° |
| 2026-05-06 11:52 | -38.35864 | 167.76749 | 38116 ft | 441 kts | 268° |
| 2026-05-06 11:53 | -38.36384 | 167.68958 | 38113 ft | 441 kts | 268° |
| 2026-05-06 11:53 | -38.36899 | 167.61166 | 38112 ft | 441 kts | 269° |
| 2026-05-06 11:54 | -38.37405 | 167.53428 | 38110 ft | 442 kts | 269° |
| 2026-05-06 11:54 | -38.37911 | 167.45610 | 38109 ft | 443 kts | 269° |
| 2026-05-06 11:55 | -38.38413 | 167.37770 | 38106 ft | 444 kts | 269° |
| 2026-05-06 11:55 | -38.38911 | 167.29913 | 38097 ft | 445 kts | 269° |
| 2026-05-06 11:56 | -38.39401 | 167.22095 | 38103 ft | 446 kts | 269° |
| 2026-05-06 11:56 | -38.39891 | 167.14213 | 38096 ft | 446 kts | 269° |
| 2026-05-06 11:57 | -38.40375 | 167.06321 | 38091 ft | 447 kts | 270° |
| 2026-05-06 11:57 | -38.40847 | 166.98548 | 38084 ft | 447 kts | 270° |
| 2026-05-06 11:58 | -38.41319 | 166.90685 | 38081 ft | 448 kts | 270° |
| 2026-05-06 11:58 | -38.41790 | 166.82761 | 38090 ft | 448 kts | 270° |
| 2026-05-06 11:59 | -38.42255 | 166.74829 | 38075 ft | 449 kts | 270° |
| 2026-05-06 11:59 | -38.42715 | 166.66893 | 38078 ft | 449 kts | 270° |
| 2026-05-06 12:00 | -38.43167 | 166.59007 | 38062 ft | 449 kts | 270° |
| 2026-05-06 12:00 | -38.43616 | 166.51075 | 38069 ft | 448 kts | 270° |
| 2026-05-06 12:01 | -38.44059 | 166.43150 | 38061 ft | 449 kts | 270° |
| 2026-05-06 12:01 | -38.44498 | 166.35211 | 38051 ft | 449 kts | 270° |
| 2026-05-06 12:02 | -38.44931 | 166.27273 | 38056 ft | 448 kts | 271° |
| 2026-05-06 12:02 | -38.45356 | 166.19395 | 38044 ft | 448 kts | 271° |
| 2026-05-06 12:03 | -38.45778 | 166.11467 | 38062 ft | 448 kts | 271° |
| 2026-05-06 12:03 | -38.46195 | 166.03523 | 38049 ft | 449 kts | 271° |
| 2026-05-06 12:04 | -38.46602 | 165.95684 | 38045 ft | 450 kts | 271° |
| 2026-05-06 12:04 | -38.46941 | 165.89063 | 38026 ft | 450 kts | 271° |
| 2026-05-06 12:05 | -38.47409 | 165.79809 | 38024 ft | 450 kts | 271° |
| 2026-05-06 12:05 | -38.47740 | 165.73184 | 38028 ft | 451 kts | 272° |
| 2026-05-06 12:06 | -38.48133 | 165.65187 | 38024 ft | 452 kts | 272° |
| 2026-05-06 12:06 | -38.48522 | 165.57163 | 38025 ft | 454 kts | 272° |
| 2026-05-06 12:07 | -38.48908 | 165.49105 | 37998 ft | 456 kts | 272° |
| 2026-05-06 12:07 | -38.49290 | 165.41028 | 38004 ft | 456 kts | 272° |
| 2026-05-06 12:08 | -38.49663 | 165.33005 | 38000 ft | 456 kts | 272° |
| 2026-05-06 12:08 | -38.50034 | 165.24914 | 38000 ft | 457 kts | 272° |
| 2026-05-06 12:09 | -38.50400 | 165.16823 | 37999 ft | 456 kts | 272° |
| 2026-05-06 12:09 | -38.50759 | 165.08733 | 38000 ft | 456 kts | 272° |
| 2026-05-06 12:10 | -38.51111 | 165.00686 | 37993 ft | 458 kts | 272° |
| 2026-05-06 12:10 | -38.51455 | 164.92688 | 37996 ft | 459 kts | 272° |
| 2026-05-06 12:11 | -38.51800 | 164.84545 | 37992 ft | 460 kts | 272° |
| 2026-05-06 12:11 | -38.52140 | 164.76393 | 37983 ft | 460 kts | 272° |
| 2026-05-06 12:12 | -38.52474 | 164.68223 | 37992 ft | 461 kts | 272° |
| 2026-05-06 12:12 | -38.52802 | 164.60092 | 37980 ft | 462 kts | 272° |
| 2026-05-06 12:13 | -38.53126 | 164.51894 | 37979 ft | 462 kts | 272° |
| 2026-05-06 12:13 | -38.53446 | 164.43688 | 37988 ft | 463 kts | 272° |
| 2026-05-06 12:14 | -38.53759 | 164.35485 | 38003 ft | 463 kts | 272° |
| 2026-05-06 12:14 | -38.54066 | 164.27262 | 37977 ft | 464 kts | 272° |
| 2026-05-06 12:15 | -38.54367 | 164.19090 | 37971 ft | 464 kts | 272° |
| 2026-05-06 12:15 | -38.54664 | 164.10868 | 37974 ft | 463 kts | 272° |
| 2026-05-06 12:16 | -38.54955 | 164.02650 | 37970 ft | 463 kts | 273° |
| 2026-05-06 12:16 | -38.55235 | 163.94562 | 37969 ft | 463 kts | 272° |
| 2026-05-06 12:17 | -38.55512 | 163.86393 | 37968 ft | 463 kts | 272° |
| 2026-05-06 12:17 | -38.55786 | 163.78163 | 37968 ft | 464 kts | 273° |
| 2026-05-06 12:18 | -38.56055 | 163.69928 | 37966 ft | 464 kts | 273° |
| 2026-05-06 12:18 | -38.56317 | 163.61696 | 37971 ft | 465 kts | 273° |
| 2026-05-06 12:19 | -38.56574 | 163.53438 | 37965 ft | 466 kts | 273° |
| 2026-05-06 12:19 | -38.56826 | 163.45165 | 37967 ft | 466 kts | 273° |
| 2026-05-06 12:20 | -38.57071 | 163.36938 | 37975 ft | 467 kts | 273° |
| 2026-05-06 12:20 | -38.57312 | 163.28649 | 37972 ft | 467 kts | 273° |
| 2026-05-06 12:21 | -38.57547 | 163.20349 | 37973 ft | 468 kts | 273° |
| 2026-05-06 12:21 | -38.57777 | 163.12037 | 37978 ft | 469 kts | 273° |
| 2026-05-06 12:22 | -38.58001 | 163.03760 | 37969 ft | 469 kts | 273° |
| 2026-05-06 12:22 | -38.58216 | 162.95545 | 37969 ft | 470 kts | 273° |
| 2026-05-06 12:23 | -38.58426 | 162.87199 | 37968 ft | 471 kts | 273° |
| 2026-05-06 12:23 | -38.58630 | 162.78835 | 37968 ft | 471 kts | 273° |
| 2026-05-06 12:24 | -38.58829 | 162.70520 | 37969 ft | 471 kts | 273° |
| 2026-05-06 12:24 | -38.59023 | 162.62148 | 37970 ft | 471 kts | 273° |
| 2026-05-06 12:25 | -38.59210 | 162.53786 | 37977 ft | 471 kts | 273° |
| 2026-05-06 12:25 | -38.59392 | 162.45412 | 37970 ft | 471 kts | 273° |
| 2026-05-06 12:26 | -38.59567 | 162.37097 | 37969 ft | 471 kts | 273° |
| 2026-05-06 12:26 | -38.59737 | 162.28731 | 37968 ft | 471 kts | 273° |
| 2026-05-06 12:27 | -38.59900 | 162.20366 | 37967 ft | 471 kts | 273° |
| 2026-05-06 12:27 | -38.60058 | 162.12001 | 37968 ft | 471 kts | 273° |
| 2026-05-06 12:28 | -38.60210 | 162.03640 | 37984 ft | 470 kts | 273° |
| 2026-05-06 12:28 | -38.60353 | 161.95478 | 37971 ft | 470 kts | 273° |
| 2026-05-06 12:29 | -38.60493 | 161.87121 | 37980 ft | 470 kts | 273° |
| 2026-05-06 12:29 | -38.60627 | 161.78756 | 37979 ft | 471 kts | 273° |
| 2026-05-06 12:30 | -38.60755 | 161.70385 | 37976 ft | 471 kts | 273° |
| 2026-05-06 12:30 | -38.60876 | 161.62080 | 37975 ft | 471 kts | 273° |
| 2026-05-06 12:31 | -38.60993 | 161.53697 | 37987 ft | 471 kts | 273° |
| 2026-05-06 12:31 | -38.61103 | 161.45326 | 37980 ft | 471 kts | 273° |
| 2026-05-06 12:32 | -38.61208 | 161.36944 | 37980 ft | 471 kts | 273° |
| 2026-05-06 12:32 | -38.61306 | 161.28619 | 37982 ft | 471 kts | 273° |
| 2026-05-06 12:33 | -38.61399 | 161.20241 | 37999 ft | 471 kts | 273° |
| 2026-05-06 12:33 | -38.61485 | 161.11859 | 37988 ft | 471 kts | 273° |
| 2026-05-06 12:34 | -38.61566 | 161.03477 | 37986 ft | 471 kts | 273° |
| 2026-05-06 12:34 | -38.61640 | 160.95228 | 37984 ft | 471 kts | 273° |
| 2026-05-06 12:35 | -38.61708 | 160.86916 | 37989 ft | 471 kts | 273° |
| 2026-05-06 12:35 | -38.61771 | 160.78540 | 37981 ft | 471 kts | 273° |
| 2026-05-06 12:36 | -38.61828 | 160.70166 | 37983 ft | 471 kts | 273° |
| 2026-05-06 12:36 | -38.61879 | 160.61794 | 37998 ft | 471 kts | 273° |
| 2026-05-06 12:37 | -38.61923 | 160.53416 | 38002 ft | 471 kts | 273° |
| 2026-05-06 12:37 | -38.61962 | 160.45096 | 37987 ft | 471 kts | 273° |
| 2026-05-06 12:38 | -38.61995 | 160.36712 | 37983 ft | 471 kts | 273° |
| 2026-05-06 12:38 | -38.62022 | 160.28330 | 37984 ft | 471 kts | 273° |
| 2026-05-06 12:39 | -38.62043 | 160.19947 | 37995 ft | 471 kts | 273° |
| 2026-05-06 12:39 | -38.62058 | 160.11566 | 37983 ft | 471 kts | 273° |
| 2026-05-06 12:40 | -38.62068 | 160.03243 | 37984 ft | 471 kts | 273° |
| 2026-05-06 12:40 | -38.62071 | 159.94998 | 37983 ft | 471 kts | 273° |
| 2026-05-06 12:41 | -38.62068 | 159.86636 | 37981 ft | 471 kts | 273° |
| 2026-05-06 12:41 | -38.62060 | 159.78265 | 37980 ft | 470 kts | 273° |
| 2026-05-06 12:42 | -38.62045 | 159.69959 | 37981 ft | 470 kts | 273° |
| 2026-05-06 12:42 | -38.62025 | 159.61606 | 37980 ft | 470 kts | 273° |
| 2026-05-06 12:43 | -38.61998 | 159.53265 | 37980 ft | 469 kts | 273° |
| 2026-05-06 12:43 | -38.61966 | 159.44919 | 37986 ft | 469 kts | 273° |
| 2026-05-06 12:44 | -38.61928 | 159.36576 | 37990 ft | 469 kts | 273° |
| 2026-05-06 12:44 | -38.61884 | 159.28288 | 37984 ft | 469 kts | 273° |
| 2026-05-06 12:45 | -38.61834 | 159.19954 | 37970 ft | 469 kts | 273° |
| 2026-05-06 12:46 | -38.61748 | 159.07441 | 37979 ft | 469 kts | 273° |
| 2026-05-06 12:46 | -38.61685 | 158.99246 | 37978 ft | 468 kts | 273° |
| 2026-05-06 12:47 | -38.61615 | 158.90978 | 37979 ft | 468 kts | 274° |
| 2026-05-06 12:47 | -38.61538 | 158.82655 | 37989 ft | 468 kts | 273° |
| 2026-05-06 12:48 | -38.61456 | 158.74337 | 37979 ft | 468 kts | 274° |
| 2026-05-06 12:48 | -38.61368 | 158.66027 | 37979 ft | 467 kts | 274° |
| 2026-05-06 12:49 | -38.61275 | 158.57789 | 37982 ft | 467 kts | 274° |
| 2026-05-06 12:49 | -38.61176 | 158.49482 | 37981 ft | 467 kts | 274° |
| 2026-05-06 12:50 | -38.61070 | 158.41187 | 37983 ft | 467 kts | 274° |
| 2026-05-06 12:50 | -38.60959 | 158.32902 | 37983 ft | 467 kts | 274° |
| 2026-05-06 12:51 | -38.60843 | 158.24663 | 37987 ft | 467 kts | 274° |
| 2026-05-06 12:51 | -38.60720 | 158.16366 | 37990 ft | 467 kts | 274° |
| 2026-05-06 12:52 | -38.60591 | 158.08068 | 37982 ft | 466 kts | 274° |
| 2026-05-06 12:52 | -38.60458 | 157.99849 | 37987 ft | 466 kts | 274° |
| 2026-05-06 12:53 | -38.60319 | 157.91635 | 37983 ft | 466 kts | 274° |
| 2026-05-06 12:53 | -38.60174 | 157.83413 | 37992 ft | 465 kts | 274° |
| 2026-05-06 12:54 | -38.60023 | 157.75136 | 37980 ft | 465 kts | 274° |
| 2026-05-06 12:54 | -38.59866 | 157.66886 | 37992 ft | 464 kts | 274° |
| 2026-05-06 12:55 | -38.59705 | 157.58649 | 37991 ft | 464 kts | 274° |
| 2026-05-06 12:55 | -38.59537 | 157.50463 | 37999 ft | 463 kts | 274° |
| 2026-05-06 12:56 | -38.59360 | 157.42226 | 37990 ft | 463 kts | 274° |
| 2026-05-06 12:56 | -38.59178 | 157.34014 | 37985 ft | 462 kts | 274° |
| 2026-05-06 12:57 | -38.58991 | 157.25802 | 37986 ft | 462 kts | 274° |
| 2026-05-06 12:57 | -38.58799 | 157.17652 | 37992 ft | 461 kts | 274° |
| 2026-05-06 12:58 | -38.58602 | 157.09461 | 37984 ft | 461 kts | 274° |
| 2026-05-06 12:58 | -38.58398 | 157.01278 | 38006 ft | 460 kts | 274° |
| 2026-05-06 12:59 | -38.58193 | 156.93233 | 37989 ft | 460 kts | 274° |
| 2026-05-06 12:59 | -38.57978 | 156.85061 | 37987 ft | 460 kts | 274° |
| 2026-05-06 13:00 | -38.57760 | 156.76953 | 37982 ft | 459 kts | 275° |
| 2026-05-06 13:00 | -38.57535 | 156.68803 | 37987 ft | 459 kts | 275° |
| 2026-05-06 13:01 | -38.57304 | 156.60660 | 37989 ft | 458 kts | 275° |
| 2026-05-06 13:01 | -38.57068 | 156.52529 | 37986 ft | 458 kts | 275° |
| 2026-05-06 13:02 | -38.56828 | 156.44445 | 37982 ft | 458 kts | 275° |
| 2026-05-06 13:02 | -38.56581 | 156.36315 | 37983 ft | 458 kts | 275° |
| 2026-05-06 13:03 | -38.56328 | 156.28190 | 37985 ft | 458 kts | 275° |
| 2026-05-06 13:03 | -38.56070 | 156.20068 | 37990 ft | 457 kts | 275° |
| 2026-05-06 13:04 | -38.55807 | 156.11956 | 37978 ft | 457 kts | 275° |
| 2026-05-06 13:04 | -38.55540 | 156.03893 | 37979 ft | 457 kts | 275° |
| 2026-05-06 13:05 | -38.55269 | 155.95909 | 37976 ft | 457 kts | 275° |
| 2026-05-06 13:05 | -38.54990 | 155.87803 | 37982 ft | 456 kts | 275° |
| 2026-05-06 13:06 | -38.54705 | 155.79713 | 37981 ft | 456 kts | 275° |
| 2026-05-06 13:06 | -38.54414 | 155.71615 | 37972 ft | 456 kts | 275° |
| 2026-05-06 13:07 | -38.54119 | 155.63576 | 37980 ft | 456 kts | 275° |
| 2026-05-06 13:07 | -38.53818 | 155.55489 | 37974 ft | 456 kts | 276° |
| 2026-05-06 13:08 | -38.53511 | 155.47410 | 37972 ft | 455 kts | 276° |
| 2026-05-06 13:08 | -38.53199 | 155.39340 | 37980 ft | 455 kts | 276° |
| 2026-05-06 13:09 | -38.52881 | 155.31277 | 37974 ft | 454 kts | 276° |
| 2026-05-06 13:09 | -38.52561 | 155.23273 | 37976 ft | 454 kts | 276° |
| 2026-05-06 13:10 | -38.52233 | 155.15226 | 37976 ft | 454 kts | 276° |
| 2026-05-06 13:10 | -38.51899 | 155.07172 | 37972 ft | 454 kts | 276° |
| 2026-05-06 13:11 | -38.51565 | 154.99244 | 37978 ft | 454 kts | 276° |
| 2026-05-06 13:11 | -38.51221 | 154.91193 | 37978 ft | 454 kts | 276° |
| 2026-05-06 13:12 | -38.50873 | 154.83204 | 37970 ft | 453 kts | 276° |
| 2026-05-06 13:12 | -38.50519 | 154.75171 | 37973 ft | 453 kts | 276° |
| 2026-05-06 13:13 | -38.50159 | 154.67148 | 37978 ft | 452 kts | 276° |
| 2026-05-06 13:13 | -38.49794 | 154.59138 | 37967 ft | 452 kts | 276° |
| 2026-05-06 13:14 | -38.49426 | 154.51183 | 37965 ft | 451 kts | 276° |
| 2026-05-06 13:14 | -38.49051 | 154.43189 | 37961 ft | 451 kts | 276° |
| 2026-05-06 13:15 | -38.48671 | 154.35204 | 37973 ft | 450 kts | 277° |
| 2026-05-06 13:15 | -38.48286 | 154.27226 | 37960 ft | 450 kts | 277° |
| 2026-05-06 13:16 | -38.47896 | 154.19257 | 37959 ft | 450 kts | 277° |
| 2026-05-06 13:16 | -38.47504 | 154.11356 | 37959 ft | 449 kts | 277° |
| 2026-05-06 13:17 | -38.47103 | 154.03396 | 37964 ft | 449 kts | 277° |
| 2026-05-06 13:17 | -38.46704 | 153.95561 | 37956 ft | 449 kts | 277° |
| 2026-05-06 13:18 | -38.46293 | 153.87606 | 37959 ft | 449 kts | 277° |
| 2026-05-06 13:18 | -38.45879 | 153.79706 | 37959 ft | 449 kts | 277° |
| 2026-05-06 13:19 | -38.45458 | 153.71762 | 37964 ft | 449 kts | 277° |
| 2026-05-06 13:19 | -38.45031 | 153.63811 | 37949 ft | 449 kts | 277° |
| 2026-05-06 13:20 | -38.44598 | 153.55864 | 37950 ft | 449 kts | 277° |
| 2026-05-06 13:20 | -38.44161 | 153.47919 | 37956 ft | 449 kts | 277° |
| 2026-05-06 13:21 | -38.43721 | 153.40031 | 37958 ft | 449 kts | 277° |
| 2026-05-06 13:21 | -38.43273 | 153.32096 | 37943 ft | 448 kts | 277° |
| 2026-05-06 13:22 | -38.42821 | 153.24171 | 37937 ft | 448 kts | 277° |
| 2026-05-06 13:22 | -38.42363 | 153.16254 | 37947 ft | 447 kts | 277° |
| 2026-05-06 13:23 | -38.41903 | 153.08393 | 37948 ft | 447 kts | 277° |
| 2026-05-06 13:23 | -38.41435 | 153.00483 | 37932 ft | 447 kts | 277° |
| 2026-05-06 13:24 | -38.40970 | 152.92709 | 37941 ft | 447 kts | 277° |
| 2026-05-06 13:24 | -38.40492 | 152.84806 | 37937 ft | 447 kts | 278° |
| 2026-05-06 13:25 | -38.40012 | 152.76957 | 37934 ft | 447 kts | 278° |
| 2026-05-06 13:25 | -38.39524 | 152.69063 | 37935 ft | 446 kts | 278° |
| 2026-05-06 13:26 | -38.39031 | 152.61177 | 37932 ft | 446 kts | 278° |
| 2026-05-06 13:26 | -38.38532 | 152.53296 | 37940 ft | 446 kts | 278° |
| 2026-05-06 13:27 | -38.38032 | 152.45469 | 37927 ft | 446 kts | 278° |
| 2026-05-06 13:27 | -38.37523 | 152.37589 | 37933 ft | 446 kts | 278° |
| 2026-05-06 13:28 | -38.37010 | 152.29717 | 37929 ft | 446 kts | 278° |
| 2026-05-06 13:28 | -38.36490 | 152.21839 | 37924 ft | 446 kts | 278° |
| 2026-05-06 13:29 | -38.35966 | 152.13963 | 37925 ft | 446 kts | 278° |
| 2026-05-06 13:29 | -38.35440 | 152.06143 | 37927 ft | 446 kts | 278° |
| 2026-05-06 13:30 | -38.34914 | 151.98396 | 37922 ft | 446 kts | 278° |
| 2026-05-06 13:30 | -38.34374 | 151.90529 | 37932 ft | 446 kts | 278° |
| 2026-05-06 13:31 | -38.33829 | 151.82671 | 37921 ft | 445 kts | 278° |
| 2026-05-06 13:31 | -38.33281 | 151.74830 | 37920 ft | 445 kts | 278° |
| 2026-05-06 13:32 | -38.32730 | 151.67037 | 37919 ft | 444 kts | 278° |
| 2026-05-06 13:32 | -38.32172 | 151.59206 | 37925 ft | 444 kts | 278° |
| 2026-05-06 13:33 | -38.31610 | 151.51398 | 37915 ft | 443 kts | 278° |
| 2026-05-06 13:33 | -38.31043 | 151.43599 | 37914 ft | 442 kts | 278° |
| 2026-05-06 13:34 | -38.30472 | 151.35813 | 37939 ft | 441 kts | 279° |
| 2026-05-06 13:34 | -38.29900 | 151.28085 | 37924 ft | 441 kts | 279° |
| 2026-05-06 13:35 | -38.29320 | 151.20317 | 37917 ft | 440 kts | 279° |
| 2026-05-06 13:35 | -38.28736 | 151.12565 | 37902 ft | 440 kts | 279° |
| 2026-05-06 13:36 | -38.28147 | 151.04825 | 37902 ft | 439 kts | 279° |
| 2026-05-06 13:36 | -38.27568 | 150.97271 | 37902 ft | 439 kts | 279° |
| 2026-05-06 13:37 | -38.26970 | 150.89537 | 37922 ft | 439 kts | 279° |
| 2026-05-06 13:37 | -38.26366 | 150.81803 | 37922 ft | 439 kts | 279° |
| 2026-05-06 13:38 | -38.25757 | 150.74067 | 37915 ft | 439 kts | 279° |
| 2026-05-06 13:38 | -38.25144 | 150.66329 | 37910 ft | 440 kts | 279° |
| 2026-05-06 13:39 | -38.24529 | 150.58642 | 37908 ft | 440 kts | 279° |
| 2026-05-06 13:39 | -38.23904 | 150.50904 | 37912 ft | 440 kts | 279° |
| 2026-05-06 13:40 | -38.23275 | 150.43167 | 37917 ft | 440 kts | 279° |
| 2026-05-06 13:40 | -38.22642 | 150.35431 | 37911 ft | 440 kts | 279° |
| 2026-05-06 13:41 | -38.22007 | 150.27758 | 37938 ft | 440 kts | 279° |
| 2026-05-06 13:41 | -38.21358 | 150.20018 | 37919 ft | 440 kts | 279° |
| 2026-05-06 13:42 | -38.20704 | 150.12277 | 37921 ft | 440 kts | 279° |
| 2026-05-06 13:42 | -38.20046 | 150.04538 | 37919 ft | 440 kts | 279° |
| 2026-05-06 13:43 | -38.19399 | 149.96976 | 37919 ft | 440 kts | 279° |
| 2026-05-06 13:43 | -38.18733 | 149.89251 | 37923 ft | 439 kts | 279° |
| 2026-05-06 13:44 | -38.18063 | 149.81547 | 37937 ft | 438 kts | 279° |
| 2026-05-06 13:44 | -38.17389 | 149.73855 | 37926 ft | 437 kts | 279° |
| 2026-05-06 13:45 | -38.16712 | 149.66183 | 37937 ft | 436 kts | 279° |
| 2026-05-06 13:45 | -38.15694 | 149.54757 | 37941 ft | 435 kts | 280° |
| 2026-05-06 13:46 | -38.15008 | 149.47124 | 37941 ft | 434 kts | 280° |
| 2026-05-06 13:46 | -38.14317 | 149.39505 | 37940 ft | 434 kts | 280° |
| 2026-05-06 13:47 | -38.13627 | 149.31944 | 37948 ft | 434 kts | 280° |
| 2026-05-06 13:47 | -38.12929 | 149.24346 | 37982 ft | 434 kts | 280° |
| 2026-05-06 13:48 | -38.12223 | 149.16724 | 37964 ft | 435 kts | 280° |
| 2026-05-06 13:48 | -38.11510 | 149.09088 | 37961 ft | 436 kts | 280° |
| 2026-05-06 13:49 | -38.10792 | 149.01437 | 37956 ft | 437 kts | 280° |
| 2026-05-06 13:49 | -38.10082 | 148.93936 | 37966 ft | 438 kts | 280° |
| 2026-05-06 13:50 | -38.09350 | 148.86246 | 37970 ft | 439 kts | 280° |
| 2026-05-06 13:50 | -38.08611 | 148.78539 | 37978 ft | 440 kts | 280° |
| 2026-05-06 13:51 | -38.07865 | 148.70826 | 37971 ft | 442 kts | 280° |
| 2026-05-06 13:51 | -38.07112 | 148.63078 | 37987 ft | 443 kts | 281° |
| 2026-05-06 13:52 | -38.06356 | 148.55360 | 37990 ft | 444 kts | 281° |
| 2026-05-06 13:52 | -38.05588 | 148.47574 | 38019 ft | 445 kts | 280° |
| 2026-05-06 13:53 | -38.04815 | 148.39781 | 38003 ft | 445 kts | 280° |
| 2026-05-06 13:53 | -38.04037 | 148.31995 | 37999 ft | 444 kts | 280° |
| 2026-05-06 13:54 | -38.03260 | 148.24277 | 38005 ft | 444 kts | 280° |
| 2026-05-06 13:54 | -38.02475 | 148.16528 | 38018 ft | 443 kts | 280° |
| 2026-05-06 13:55 | -38.01687 | 148.08795 | 38014 ft | 441 kts | 280° |
| 2026-05-06 13:55 | -38.00896 | 148.01093 | 38013 ft | 440 kts | 280° |
| 2026-05-06 13:56 | -38.00120 | 147.93585 | 38014 ft | 438 kts | 280° |
| 2026-05-06 13:56 | -37.99324 | 147.85930 | 38019 ft | 437 kts | 280° |
| 2026-05-06 13:57 | -37.98524 | 147.78291 | 38021 ft | 437 kts | 281° |
| 2026-05-06 13:57 | -37.97720 | 147.70668 | 38027 ft | 437 kts | 281° |
| 2026-05-06 13:58 | -37.96911 | 147.63037 | 38019 ft | 438 kts | 280° |
| 2026-05-06 13:58 | -37.96099 | 147.55428 | 38033 ft | 440 kts | 280° |
| 2026-05-06 13:59 | -37.95273 | 147.47734 | 38036 ft | 442 kts | 280° |
| 2026-05-06 13:59 | -37.94438 | 147.40010 | 38034 ft | 443 kts | 280° |
| 2026-05-06 14:00 | -37.93595 | 147.32264 | 38033 ft | 445 kts | 280° |
| 2026-05-06 14:00 | -37.92751 | 147.24539 | 38041 ft | 446 kts | 280° |
| 2026-05-06 14:01 | -37.91893 | 147.16743 | 38035 ft | 447 kts | 280° |
| 2026-05-06 14:01 | -37.91028 | 147.08934 | 38047 ft | 448 kts | 280° |
| 2026-05-06 14:02 | -37.90158 | 147.01122 | 38042 ft | 448 kts | 280° |
| 2026-05-06 14:02 | -37.89297 | 146.93444 | 38043 ft | 447 kts | 280° |
| 2026-05-06 14:03 | -37.88426 | 146.85715 | 38042 ft | 446 kts | 280° |
| 2026-05-06 14:03 | -37.87546 | 146.77964 | 38053 ft | 445 kts | 280° |
| 2026-05-06 14:04 | -37.86662 | 146.70224 | 38058 ft | 444 kts | 280° |
| 2026-05-06 14:04 | -37.85775 | 146.62497 | 38065 ft | 443 kts | 280° |
| 2026-05-06 14:05 | -37.84890 | 146.54839 | 38063 ft | 443 kts | 280° |
| 2026-05-06 14:05 | -37.83996 | 146.47137 | 38076 ft | 442 kts | 280° |
| 2026-05-06 14:06 | -37.83097 | 146.39450 | 38083 ft | 442 kts | 280° |
| 2026-05-06 14:06 | -37.82192 | 146.31761 | 38086 ft | 442 kts | 280° |
| 2026-05-06 14:07 | -37.81289 | 146.24121 | 38090 ft | 443 kts | 280° |
| 2026-05-06 14:07 | -37.80372 | 146.16393 | 38106 ft | 445 kts | 280° |
| 2026-05-06 14:08 | -37.79444 | 146.08636 | 38134 ft | 447 kts | 280° |
| 2026-05-06 14:08 | -37.78504 | 146.00868 | 38112 ft | 448 kts | 280° |
| 2026-05-06 14:09 | -37.77572 | 145.93228 | 38114 ft | 448 kts | 280° |
| 2026-05-06 14:09 | -37.76625 | 145.85499 | 38135 ft | 448 kts | 280° |
| 2026-05-06 14:10 | -37.75668 | 145.77713 | 38133 ft | 448 kts | 280° |
| 2026-05-06 14:10 | -37.74704 | 145.69923 | 38128 ft | 449 kts | 280° |
| 2026-05-06 14:11 | -37.73736 | 145.62140 | 38136 ft | 448 kts | 280° |
| 2026-05-06 14:11 | -37.72764 | 145.54365 | 38143 ft | 448 kts | 280° |
| 2026-05-06 14:12 | -37.71794 | 145.46652 | 38141 ft | 448 kts | 279° |
| 2026-05-06 14:12 | -37.71004 | 145.38853 | 38140 ft | 448 kts | 277° |
| 2026-05-06 14:13 | -37.70345 | 145.31034 | 38175 ft | 448 kts | 277° |
| 2026-05-06 14:13 | -37.69657 | 145.23213 | 38156 ft | 448 kts | 277° |
| 2026-05-06 14:14 | -37.68943 | 145.15447 | 38140 ft | 448 kts | 277° |
| 2026-05-06 14:14 | -37.68214 | 145.07638 | 38144 ft | 448 kts | 277° |
| 2026-05-06 14:15 | -37.67486 | 144.99887 | 38131 ft | 447 kts | 276° |
| 2026-05-06 14:15 | -37.66759 | 144.92175 | 38128 ft | 446 kts | 277° |
| 2026-05-06 14:16 | -37.66022 | 144.84429 | 38129 ft | 444 kts | 277° |
| 2026-05-06 14:16 | -37.65450 | 144.76728 | 38131 ft | 443 kts | 274° |
| 2026-05-06 14:17 | -37.65012 | 144.68989 | 38136 ft | 441 kts | 274° |
| 2026-05-06 14:17 | -37.64568 | 144.61287 | 38138 ft | 439 kts | 274° |
| 2026-05-06 14:18 | -37.64097 | 144.53616 | 38168 ft | 439 kts | 274° |
| 2026-05-06 14:18 | -37.63612 | 144.45996 | 38156 ft | 438 kts | 274° |
| 2026-05-06 14:19 | -37.63117 | 144.38337 | 38170 ft | 437 kts | 274° |
| 2026-05-06 14:19 | -37.62620 | 144.30709 | 38185 ft | 437 kts | 274° |
| 2026-05-06 14:20 | -37.62117 | 144.23071 | 38156 ft | 437 kts | 274° |
| 2026-05-06 14:20 | -37.61696 | 144.16730 | 38175 ft | 437 kts | 274° |
| 2026-05-06 14:21 | -37.61101 | 144.07862 | 38196 ft | 437 kts | 274° |
| 2026-05-06 14:21 | -37.60584 | 144.00225 | 38197 ft | 437 kts | 274° |
| 2026-05-06 14:22 | -37.60158 | 143.93982 | 38196 ft | 438 kts | 274° |
| 2026-05-06 14:22 | -37.59631 | 143.86332 | 38233 ft | 438 kts | 274° |
| 2026-05-06 14:23 | -37.59097 | 143.78658 | 38212 ft | 440 kts | 274° |
| 2026-05-06 14:23 | -37.58556 | 143.70965 | 38194 ft | 441 kts | 274° |
| 2026-05-06 14:24 | -37.58010 | 143.63257 | 38213 ft | 442 kts | 274° |
| 2026-05-06 14:24 | -37.57462 | 143.55596 | 38211 ft | 443 kts | 274° |
| 2026-05-06 14:25 | -37.56903 | 143.47866 | 38197 ft | 443 kts | 274° |
| 2026-05-06 14:25 | -37.56339 | 143.40126 | 38207 ft | 443 kts | 274° |
| 2026-05-06 14:26 | -37.55771 | 143.32404 | 38222 ft | 443 kts | 274° |
| 2026-05-06 14:26 | -37.55202 | 143.24726 | 38187 ft | 443 kts | 274° |
| 2026-05-06 14:27 | -37.54623 | 143.17007 | 38235 ft | 443 kts | 274° |
| 2026-05-06 14:27 | -37.54040 | 143.09276 | 38227 ft | 444 kts | 274° |
| 2026-05-06 14:28 | -37.53449 | 143.01523 | 38229 ft | 445 kts | 274° |
| 2026-05-06 14:28 | -37.52862 | 142.93886 | 38221 ft | 445 kts | 274° |
| 2026-05-06 14:29 | -37.52265 | 142.86183 | 38234 ft | 445 kts | 274° |
| 2026-05-06 14:29 | -37.51658 | 142.78416 | 38230 ft | 446 kts | 274° |
| 2026-05-06 14:30 | -37.51047 | 142.70662 | 38233 ft | 445 kts | 274° |
| 2026-05-06 14:30 | -37.50430 | 142.62906 | 38232 ft | 445 kts | 274° |
| 2026-05-06 14:31 | -37.49813 | 142.55211 | 38246 ft | 445 kts | 274° |
| 2026-05-06 14:31 | -37.49187 | 142.47463 | 38246 ft | 446 kts | 273° |
| 2026-05-06 14:32 | -37.48553 | 142.39680 | 38244 ft | 448 kts | 273° |
| 2026-05-06 14:32 | -37.47912 | 142.31873 | 38243 ft | 449 kts | 273° |
| 2026-05-06 14:33 | -37.47266 | 142.24092 | 38253 ft | 450 kts | 273° |
| 2026-05-06 14:33 | -37.46612 | 142.16259 | 38248 ft | 450 kts | 273° |
| 2026-05-06 14:34 | -37.45952 | 142.08421 | 38260 ft | 450 kts | 273° |
| 2026-05-06 14:34 | -37.45287 | 142.00589 | 38253 ft | 449 kts | 273° |
| 2026-05-06 14:35 | -37.44633 | 141.92944 | 38253 ft | 449 kts | 273° |
| 2026-05-06 14:35 | -37.43961 | 141.85143 | 38292 ft | 450 kts | 273° |
| 2026-05-06 14:36 | -37.43280 | 141.77305 | 38260 ft | 451 kts | 273° |
| 2026-05-06 14:36 | -37.42593 | 141.69461 | 38270 ft | 451 kts | 273° |
| 2026-05-06 14:37 | -37.41900 | 141.61600 | 38280 ft | 452 kts | 273° |
| 2026-05-06 14:37 | -37.41207 | 141.53804 | 38279 ft | 452 kts | 273° |
| 2026-05-06 14:38 | -37.40502 | 141.45928 | 38458 ft | 454 kts | 273° |
| 2026-05-06 14:38 | -37.40147 | 141.41988 | 38749 ft | 453 kts | 274° |
| 2026-05-06 14:38 | -37.39791 | 141.38059 | 39029 ft | 452 kts | 274° |
| 2026-05-06 14:39 | -37.39435 | 141.34141 | 39239 ft | 451 kts | 274° |
| 2026-05-06 14:39 | -37.39079 | 141.30226 | 39424 ft | 451 kts | 274° |
| 2026-05-06 14:39 | -37.38721 | 141.26309 | 39603 ft | 451 kts | 274° |
| 2026-05-06 14:39 | -37.38362 | 141.22394 | 39801 ft | 451 kts | 274° |
| 2026-05-06 14:40 | -37.37642 | 141.14588 | 40061 ft | 453 kts | 274° |
| 2026-05-06 14:40 | -37.37277 | 141.10657 | 40174 ft | 453 kts | 274° |
| 2026-05-06 14:40 | -37.36910 | 141.06717 | 40208 ft | 454 kts | 274° |
| 2026-05-06 14:41 | -37.36184 | 140.98967 | 40281 ft | 454 kts | 274° |
| 2026-05-06 14:41 | -37.35441 | 140.91089 | 40295 ft | 454 kts | 274° |
| 2026-05-06 14:42 | -37.34693 | 140.83213 | 40283 ft | 454 kts | 274° |
| 2026-05-06 14:42 | -37.33945 | 140.75394 | 40292 ft | 454 kts | 274° |
| 2026-05-06 14:43 | -37.33186 | 140.67522 | 40297 ft | 454 kts | 274° |
| 2026-05-06 14:43 | -37.32422 | 140.59652 | 40315 ft | 454 kts | 274° |
| 2026-05-06 14:44 | -37.31658 | 140.51830 | 40304 ft | 454 kts | 274° |
| 2026-05-06 14:45 | -37.30493 | 140.40005 | 40282 ft | 455 kts | 274° |
| 2026-05-06 14:45 | -37.29710 | 140.32131 | 40299 ft | 455 kts | 274° |
| 2026-05-06 14:46 | -37.28921 | 140.24246 | 40307 ft | 455 kts | 274° |
| 2026-05-06 14:46 | -37.28132 | 140.16411 | 40292 ft | 455 kts | 274° |
| 2026-05-06 14:47 | -37.27333 | 140.08521 | 40306 ft | 456 kts | 274° |
| 2026-05-06 14:47 | -37.26328 | 140.00644 | 40317 ft | 458 kts | 277° |
| 2026-05-06 14:48 | -37.25155 | 139.92940 | 40306 ft | 458 kts | 277° |
| 2026-05-06 14:48 | -37.23963 | 139.85078 | 40320 ft | 459 kts | 277° |
| 2026-05-06 14:49 | -37.22806 | 139.77271 | 40326 ft | 459 kts | 276° |
| 2026-05-06 14:49 | -37.21649 | 139.69391 | 40321 ft | 459 kts | 277° |
| 2026-05-06 14:50 | -37.20488 | 139.61506 | 40328 ft | 459 kts | 277° |
| 2026-05-06 14:50 | -37.19320 | 139.53620 | 40330 ft | 460 kts | 277° |
| 2026-05-06 14:51 | -37.18156 | 139.45800 | 40329 ft | 460 kts | 277° |
| 2026-05-06 14:51 | -37.16974 | 139.37899 | 40338 ft | 460 kts | 277° |
| 2026-05-06 14:52 | -37.15789 | 139.30012 | 40340 ft | 461 kts | 277° |
| 2026-05-06 14:52 | -37.14594 | 139.22110 | 40347 ft | 462 kts | 276° |
| 2026-05-06 14:53 | -37.13394 | 139.14202 | 40348 ft | 463 kts | 276° |
| 2026-05-06 14:53 | -37.12194 | 139.06332 | 40344 ft | 463 kts | 276° |
| 2026-05-06 14:54 | -37.10996 | 138.98512 | 40339 ft | 463 kts | 277° |
| 2026-05-06 14:54 | -37.09778 | 138.90596 | 40345 ft | 463 kts | 277° |
| 2026-05-06 14:55 | -37.08553 | 138.82671 | 40354 ft | 464 kts | 277° |
| 2026-05-06 14:55 | -37.07331 | 138.74802 | 40359 ft | 464 kts | 277° |
| 2026-05-06 14:56 | -37.06093 | 138.66867 | 40357 ft | 464 kts | 277° |
| 2026-05-06 14:56 | -37.04849 | 138.58933 | 40371 ft | 465 kts | 277° |
| 2026-05-06 14:57 | -37.03597 | 138.50988 | 40362 ft | 466 kts | 277° |
| 2026-05-06 14:57 | -37.02347 | 138.43083 | 40369 ft | 466 kts | 277° |
| 2026-05-06 14:58 | -37.01081 | 138.35115 | 40364 ft | 467 kts | 277° |
| 2026-05-06 14:58 | -36.99812 | 138.27163 | 40377 ft | 468 kts | 277° |
| 2026-05-06 14:59 | -36.98531 | 138.19172 | 40377 ft | 469 kts | 277° |
| 2026-05-06 14:59 | -36.97242 | 138.11172 | 40343 ft | 469 kts | 277° |
| 2026-05-06 15:00 | -36.95956 | 138.03223 | 40372 ft | 470 kts | 277° |
| 2026-05-06 15:00 | -36.94677 | 137.95354 | 40382 ft | 470 kts | 277° |
| 2026-05-06 15:01 | -36.93371 | 137.87354 | 40397 ft | 470 kts | 277° |
| 2026-05-06 15:01 | -36.92057 | 137.79335 | 40371 ft | 471 kts | 277° |
| 2026-05-06 15:02 | -36.90743 | 137.71355 | 40385 ft | 472 kts | 277° |
| 2026-05-06 15:02 | -36.89412 | 137.63308 | 40389 ft | 473 kts | 277° |
| 2026-05-06 15:03 | -36.88073 | 137.55250 | 40394 ft | 474 kts | 277° |
| 2026-05-06 15:03 | -36.86727 | 137.47184 | 40389 ft | 474 kts | 277° |
| 2026-05-06 15:04 | -36.85376 | 137.39123 | 40396 ft | 475 kts | 277° |
| 2026-05-06 15:04 | -36.84028 | 137.31104 | 40401 ft | 475 kts | 277° |
| 2026-05-06 15:05 | -36.82662 | 137.23026 | 40387 ft | 476 kts | 278° |
| 2026-05-06 15:05 | -36.81284 | 137.14948 | 40398 ft | 476 kts | 277° |
| 2026-05-06 15:06 | -36.79900 | 137.06859 | 40406 ft | 477 kts | 277° |
| 2026-05-06 15:06 | -36.78530 | 136.98883 | 40412 ft | 478 kts | 277° |
| 2026-05-06 15:07 | -36.77141 | 136.90826 | 40393 ft | 478 kts | 278° |
| 2026-05-06 15:07 | -36.75736 | 136.82712 | 40414 ft | 479 kts | 278° |
| 2026-05-06 15:08 | -36.74324 | 136.74594 | 40415 ft | 479 kts | 278° |
| 2026-05-06 15:08 | -36.72905 | 136.66471 | 40415 ft | 480 kts | 278° |
| 2026-05-06 15:09 | -36.71490 | 136.58402 | 40410 ft | 480 kts | 278° |
| 2026-05-06 15:09 | -36.70061 | 136.50290 | 40426 ft | 480 kts | 278° |
| 2026-05-06 15:10 | -36.68623 | 136.42156 | 40429 ft | 481 kts | 278° |
| 2026-05-06 15:10 | -36.67176 | 136.34010 | 40430 ft | 482 kts | 278° |
| 2026-05-06 15:11 | -36.65721 | 136.25852 | 40429 ft | 483 kts | 278° |
| 2026-05-06 15:11 | -36.64268 | 136.17739 | 40433 ft | 484 kts | 278° |
| 2026-05-06 15:12 | -36.62799 | 136.09572 | 40432 ft | 484 kts | 278° |
| 2026-05-06 15:12 | -36.61321 | 136.01388 | 40432 ft | 485 kts | 278° |
| 2026-05-06 15:13 | -36.59858 | 135.93324 | 40441 ft | 485 kts | 278° |
| 2026-05-06 15:13 | -36.58365 | 135.85124 | 40440 ft | 486 kts | 279° |
| 2026-05-06 15:14 | -36.56874 | 135.76968 | 40425 ft | 487 kts | 279° |
| 2026-05-06 15:14 | -36.55364 | 135.68747 | 40440 ft | 488 kts | 279° |
| 2026-05-06 15:15 | -36.53846 | 135.60514 | 40446 ft | 489 kts | 279° |
| 2026-05-06 15:15 | -36.52322 | 135.52278 | 40445 ft | 490 kts | 279° |
| 2026-05-06 15:16 | -36.50788 | 135.44025 | 40448 ft | 490 kts | 279° |
| 2026-05-06 15:16 | -36.49258 | 135.35829 | 40454 ft | 490 kts | 279° |
| 2026-05-06 15:17 | -36.47710 | 135.27572 | 40451 ft | 491 kts | 279° |
| 2026-05-06 15:17 | -36.46157 | 135.19315 | 40437 ft | 491 kts | 280° |
| 2026-05-06 15:18 | -36.44596 | 135.11054 | 40448 ft | 491 kts | 280° |
| 2026-05-06 15:18 | -36.43045 | 135.02867 | 40457 ft | 491 kts | 280° |
| 2026-05-06 15:19 | -36.41594 | 134.94726 | 40458 ft | 490 kts | 277° |
| 2026-05-06 15:19 | -36.40388 | 134.86403 | 40458 ft | 490 kts | 277° |
| 2026-05-06 15:20 | -36.39212 | 134.78080 | 40462 ft | 490 kts | 277° |
| 2026-05-06 15:20 | -36.37992 | 134.69763 | 40468 ft | 490 kts | 277° |
| 2026-05-06 15:21 | -36.36750 | 134.61512 | 40461 ft | 490 kts | 277° |
| 2026-05-06 15:21 | -36.35487 | 134.53202 | 40464 ft | 490 kts | 278° |
| 2026-05-06 15:22 | -36.34219 | 134.44893 | 40470 ft | 490 kts | 278° |
| 2026-05-06 15:22 | -36.32946 | 134.36578 | 40473 ft | 491 kts | 278° |
| 2026-05-06 15:23 | -36.31669 | 134.28267 | 40465 ft | 491 kts | 278° |
| 2026-05-06 15:23 | -36.30393 | 134.20010 | 40476 ft | 491 kts | 278° |
| 2026-05-06 15:24 | -36.29103 | 134.11702 | 40479 ft | 491 kts | 278° |
| 2026-05-06 15:24 | -36.27807 | 134.03396 | 40480 ft | 491 kts | 278° |
| 2026-05-06 15:25 | -36.26526 | 133.95220 | 40474 ft | 491 kts | 278° |
| 2026-05-06 15:25 | -36.25227 | 133.86968 | 40485 ft | 491 kts | 278° |
| 2026-05-06 15:26 | -36.23911 | 133.78654 | 40483 ft | 492 kts | 278° |
| 2026-05-06 15:26 | -36.22590 | 133.70341 | 40475 ft | 492 kts | 278° |
| 2026-05-06 15:27 | -36.21263 | 133.62025 | 40484 ft | 492 kts | 279° |
| 2026-05-06 15:27 | -36.19929 | 133.53717 | 40491 ft | 492 kts | 279° |
| 2026-05-06 15:28 | -36.18599 | 133.45469 | 40493 ft | 492 kts | 279° |
| 2026-05-06 15:28 | -36.17256 | 133.37175 | 40494 ft | 491 kts | 279° |
| 2026-05-06 15:29 | -36.15908 | 133.28885 | 40493 ft | 491 kts | 279° |
| 2026-05-06 15:29 | -36.14554 | 133.20601 | 40493 ft | 491 kts | 279° |
| 2026-05-06 15:30 | -36.13204 | 133.12376 | 40493 ft | 491 kts | 279° |
| 2026-05-06 15:30 | -36.11843 | 133.04125 | 40490 ft | 489 kts | 279° |
| 2026-05-06 15:31 | -36.10500 | 132.96017 | 40492 ft | 488 kts | 279° |
| 2026-05-06 15:31 | -36.09131 | 132.87792 | 40496 ft | 488 kts | 279° |
| 2026-05-06 15:32 | -36.07078 | 132.75516 | 40502 ft | 488 kts | 279° |
| 2026-05-06 15:32 | -36.05695 | 132.67296 | 40504 ft | 488 kts | 279° |
| 2026-05-06 15:33 | -36.04308 | 132.59085 | 40498 ft | 489 kts | 279° |
| 2026-05-06 15:33 | -36.02910 | 132.50847 | 40505 ft | 490 kts | 279° |
| 2026-05-06 15:34 | -36.01509 | 132.42633 | 40511 ft | 489 kts | 280° |
| 2026-05-06 15:34 | -36.00112 | 132.34471 | 40506 ft | 489 kts | 280° |
| 2026-05-06 15:35 | -35.98702 | 132.26267 | 40509 ft | 489 kts | 280° |
| 2026-05-06 15:35 | -35.97284 | 132.18058 | 40507 ft | 489 kts | 280° |
| 2026-05-06 15:36 | -35.95862 | 132.09856 | 40509 ft | 488 kts | 280° |
| 2026-05-06 15:36 | -35.94435 | 132.01659 | 40513 ft | 488 kts | 280° |
| 2026-05-06 15:37 | -35.93033 | 131.93645 | 40511 ft | 489 kts | 280° |
| 2026-05-06 15:37 | -35.91595 | 131.85455 | 40531 ft | 489 kts | 280° |
| 2026-05-06 15:38 | -35.90151 | 131.77268 | 40510 ft | 488 kts | 280° |
| 2026-05-06 15:38 | -35.88701 | 131.69084 | 40528 ft | 488 kts | 280° |
| 2026-05-06 15:39 | -35.87256 | 131.60954 | 40511 ft | 489 kts | 281° |
| 2026-05-06 15:39 | -35.85796 | 131.52771 | 40529 ft | 489 kts | 281° |
| 2026-05-06 15:40 | -35.84327 | 131.44592 | 40516 ft | 489 kts | 281° |
| 2026-05-06 15:40 | -35.82848 | 131.36415 | 40517 ft | 489 kts | 281° |
| 2026-05-06 15:41 | -35.81367 | 131.28251 | 40515 ft | 489 kts | 281° |
| 2026-05-06 15:41 | -35.79890 | 131.20139 | 40526 ft | 488 kts | 281° |
| 2026-05-06 15:42 | -35.78399 | 131.11982 | 40521 ft | 488 kts | 281° |
| 2026-05-06 15:42 | -35.76903 | 131.03828 | 40523 ft | 488 kts | 281° |
| 2026-05-06 15:43 | -35.75425 | 130.95804 | 40532 ft | 488 kts | 281° |
| 2026-05-06 15:43 | -35.73918 | 130.87657 | 40518 ft | 488 kts | 281° |
| 2026-05-06 15:44 | -35.72416 | 130.79568 | 40527 ft | 488 kts | 281° |
| 2026-05-06 15:44 | -35.70898 | 130.71430 | 40531 ft | 488 kts | 281° |
| 2026-05-06 15:45 | -35.69375 | 130.63292 | 40525 ft | 488 kts | 281° |
| 2026-05-06 15:45 | -35.67847 | 130.55166 | 40527 ft | 488 kts | 281° |
| 2026-05-06 15:46 | -35.66313 | 130.47036 | 40526 ft | 488 kts | 281° |
| 2026-05-06 15:46 | -35.64784 | 130.38962 | 40530 ft | 488 kts | 281° |
| 2026-05-06 15:47 | -35.63238 | 130.30834 | 40533 ft | 488 kts | 281° |
| 2026-05-06 15:47 | -35.61686 | 130.22706 | 40527 ft | 489 kts | 281° |
| 2026-05-06 15:48 | -35.60128 | 130.14577 | 40532 ft | 489 kts | 281° |
| 2026-05-06 15:48 | -35.58577 | 130.06512 | 40536 ft | 489 kts | 281° |
| 2026-05-06 15:49 | -35.57031 | 129.98510 | 40532 ft | 489 kts | 281° |
| 2026-05-06 15:49 | -35.55454 | 129.90379 | 40538 ft | 489 kts | 281° |
| 2026-05-06 15:50 | -35.53871 | 129.82245 | 40537 ft | 490 kts | 281° |
| 2026-05-06 15:50 | -35.52292 | 129.74164 | 40538 ft | 490 kts | 281° |
| 2026-05-06 15:51 | -35.50697 | 129.66029 | 40542 ft | 490 kts | 281° |
| 2026-05-06 15:51 | -35.49095 | 129.57892 | 40536 ft | 491 kts | 281° |
| 2026-05-06 15:52 | -35.47489 | 129.49765 | 40538 ft | 491 kts | 281° |
| 2026-05-06 15:52 | -35.45875 | 129.41629 | 40537 ft | 491 kts | 281° |
| 2026-05-06 15:53 | -35.44265 | 129.33547 | 40534 ft | 491 kts | 282° |
| 2026-05-06 15:53 | -35.42639 | 129.25411 | 40541 ft | 491 kts | 281° |
| 2026-05-06 15:54 | -35.41007 | 129.17275 | 40540 ft | 492 kts | 281° |
| 2026-05-06 15:54 | -35.39368 | 129.09137 | 40539 ft | 492 kts | 282° |
| 2026-05-06 15:55 | -35.37734 | 129.01053 | 40546 ft | 492 kts | 282° |
| 2026-05-06 15:55 | -35.36110 | 128.93050 | 40543 ft | 492 kts | 281° |
| 2026-05-06 15:56 | -35.34451 | 128.84902 | 40538 ft | 493 kts | 281° |
| 2026-05-06 15:56 | -35.32789 | 128.76769 | 40544 ft | 493 kts | 282° |
| 2026-05-06 15:57 | -35.31118 | 128.68624 | 40544 ft | 493 kts | 282° |
| 2026-05-06 15:57 | -35.29452 | 128.60532 | 40539 ft | 494 kts | 282° |
| 2026-05-06 15:58 | -35.27768 | 128.52384 | 40543 ft | 494 kts | 282° |
| 2026-05-06 15:58 | -35.26078 | 128.44234 | 40550 ft | 494 kts | 282° |
| 2026-05-06 15:59 | -35.24382 | 128.36085 | 40547 ft | 494 kts | 282° |
| 2026-05-06 15:59 | -35.22681 | 128.27938 | 40538 ft | 494 kts | 282° |
| 2026-05-06 16:00 | -35.20987 | 128.19860 | 40547 ft | 494 kts | 282° |
| 2026-05-06 16:00 | -35.19276 | 128.11725 | 40544 ft | 494 kts | 282° |
| 2026-05-06 16:01 | -35.17560 | 128.03593 | 40546 ft | 494 kts | 282° |
| 2026-05-06 16:01 | -35.15865 | 127.95589 | 40538 ft | 494 kts | 282° |
| 2026-05-06 16:02 | -35.14151 | 127.87517 | 40546 ft | 494 kts | 282° |
| 2026-05-06 16:02 | -35.12422 | 127.79396 | 40547 ft | 494 kts | 282° |
| 2026-05-06 16:03 | -35.10691 | 127.71287 | 40543 ft | 494 kts | 282° |
| 2026-05-06 16:03 | -35.08952 | 127.63171 | 40545 ft | 494 kts | 282° |
| 2026-05-06 16:04 | -35.07207 | 127.55060 | 40551 ft | 494 kts | 282° |
| 2026-05-06 16:04 | -35.05470 | 127.47009 | 40540 ft | 494 kts | 282° |
| 2026-05-06 16:05 | -35.03715 | 127.38907 | 40541 ft | 494 kts | 282° |
| 2026-05-06 16:05 | -35.01955 | 127.30809 | 40548 ft | 494 kts | 282° |
| 2026-05-06 16:06 | -35.00189 | 127.22714 | 40535 ft | 494 kts | 282° |
| 2026-05-06 16:06 | -34.98433 | 127.14687 | 40542 ft | 494 kts | 282° |
| 2026-05-06 16:07 | -34.96659 | 127.06611 | 40545 ft | 494 kts | 282° |
| 2026-05-06 16:07 | -34.94906 | 126.98652 | 40538 ft | 494 kts | 282° |
| 2026-05-06 16:08 | -34.93119 | 126.90571 | 40553 ft | 494 kts | 283° |
| 2026-05-06 16:08 | -34.91326 | 126.82490 | 40533 ft | 494 kts | 283° |
| 2026-05-06 16:09 | -34.89540 | 126.74468 | 40531 ft | 494 kts | 283° |
| 2026-05-06 16:09 | -34.87737 | 126.66396 | 40549 ft | 494 kts | 283° |
| 2026-05-06 16:10 | -34.85927 | 126.58323 | 40545 ft | 494 kts | 283° |
| 2026-05-06 16:10 | -34.84114 | 126.50261 | 40545 ft | 494 kts | 283° |
| 2026-05-06 16:11 | -34.82294 | 126.42196 | 40543 ft | 494 kts | 283° |
| 2026-05-06 16:11 | -34.80481 | 126.34190 | 40547 ft | 494 kts | 283° |
| 2026-05-06 16:12 | -34.78651 | 126.26133 | 40546 ft | 494 kts | 283° |
| 2026-05-06 16:12 | -34.76815 | 126.18078 | 40540 ft | 494 kts | 283° |
| 2026-05-06 16:13 | -34.74974 | 126.10026 | 40540 ft | 494 kts | 283° |
| 2026-05-06 16:13 | -34.73139 | 126.02030 | 40543 ft | 494 kts | 283° |
| 2026-05-06 16:14 | -34.71317 | 125.94115 | 40539 ft | 494 kts | 283° |
| 2026-05-06 16:14 | -34.69459 | 125.86070 | 40540 ft | 494 kts | 283° |
| 2026-05-06 16:15 | -34.67595 | 125.78027 | 40540 ft | 494 kts | 283° |
| 2026-05-06 16:15 | -34.65727 | 125.69993 | 40534 ft | 494 kts | 283° |
| 2026-05-06 16:16 | -34.63869 | 125.62025 | 40539 ft | 494 kts | 283° |
| 2026-05-06 16:16 | -34.61992 | 125.54002 | 40542 ft | 494 kts | 283° |
| 2026-05-06 16:17 | -34.60109 | 125.45981 | 40535 ft | 494 kts | 283° |
| 2026-05-06 16:17 | -34.58221 | 125.37964 | 40541 ft | 494 kts | 283° |
| 2026-05-06 16:18 | -34.56341 | 125.30006 | 40542 ft | 494 kts | 283° |
| 2026-05-06 16:18 | -34.54443 | 125.21997 | 40537 ft | 494 kts | 283° |
| 2026-05-06 16:19 | -34.52540 | 125.13993 | 40540 ft | 494 kts | 283° |
| 2026-05-06 16:19 | -34.50631 | 125.05986 | 40533 ft | 494 kts | 283° |
| 2026-05-06 16:20 | -34.48746 | 124.98107 | 40531 ft | 494 kts | 283° |
| 2026-05-06 16:20 | -34.46832 | 124.90162 | 40536 ft | 494 kts | 284° |
| 2026-05-06 16:21 | -34.44899 | 124.82167 | 40534 ft | 494 kts | 284° |
| 2026-05-06 16:21 | -34.42968 | 124.74197 | 40536 ft | 494 kts | 284° |
| 2026-05-06 16:22 | -34.41026 | 124.66202 | 40533 ft | 495 kts | 284° |
| 2026-05-06 16:22 | -34.39080 | 124.58216 | 40535 ft | 495 kts | 284° |
| 2026-05-06 16:23 | -34.37128 | 124.50231 | 40535 ft | 495 kts | 284° |
| 2026-05-06 16:23 | -34.35172 | 124.42256 | 40526 ft | 495 kts | 284° |
| 2026-05-06 16:24 | -34.33222 | 124.34329 | 40538 ft | 495 kts | 284° |
| 2026-05-06 16:24 | -34.31254 | 124.26351 | 40534 ft | 495 kts | 284° |
| 2026-05-06 16:25 | -34.29279 | 124.18374 | 40529 ft | 495 kts | 284° |
| 2026-05-06 16:25 | -34.27299 | 124.10399 | 40541 ft | 495 kts | 284° |
| 2026-05-06 16:26 | -34.25327 | 124.02481 | 40541 ft | 495 kts | 284° |
| 2026-05-06 16:26 | -34.23367 | 123.94633 | 40525 ft | 495 kts | 284° |
| 2026-05-06 16:27 | -34.21372 | 123.86672 | 40534 ft | 495 kts | 284° |
| 2026-05-06 16:27 | -34.19370 | 123.78706 | 40533 ft | 496 kts | 284° |
| 2026-05-06 16:28 | -34.17375 | 123.70794 | 40532 ft | 496 kts | 284° |
| 2026-05-06 16:28 | -34.15362 | 123.62833 | 40539 ft | 496 kts | 284° |
| 2026-05-06 16:29 | -34.13344 | 123.54873 | 40538 ft | 496 kts | 284° |
| 2026-05-06 16:29 | -34.11320 | 123.46918 | 40531 ft | 496 kts | 284° |
| 2026-05-06 16:30 | -34.09978 | 123.41655 | 40536 ft | 496 kts | 284° |
| 2026-05-06 16:30 | -34.07271 | 123.31074 | 40531 ft | 496 kts | 284° |
| 2026-05-06 16:31 | -34.05235 | 123.23139 | 40519 ft | 496 kts | 284° |
| 2026-05-06 16:31 | -34.03191 | 123.15201 | 40508 ft | 496 kts | 285° |
| 2026-05-06 16:32 | -34.01489 | 123.08607 | 40531 ft | 495 kts | 285° |
| 2026-05-06 16:32 | -33.99440 | 123.00693 | 40530 ft | 495 kts | 285° |
| 2026-05-06 16:33 | -33.97082 | 122.91614 | 40532 ft | 495 kts | 285° |
| 2026-05-06 16:34 | -33.94326 | 122.81036 | 40533 ft | 495 kts | 285° |
| 2026-05-06 16:34 | -33.92271 | 122.73181 | 40534 ft | 495 kts | 285° |
| 2026-05-06 16:35 | -33.90199 | 122.65278 | 40533 ft | 495 kts | 285° |
| 2026-05-06 16:35 | -33.87771 | 122.56050 | 40531 ft | 495 kts | 285° |
| 2026-05-06 16:36 | -33.86039 | 122.49486 | 40533 ft | 495 kts | 285° |
| 2026-05-06 16:36 | -33.83951 | 122.41594 | 40529 ft | 495 kts | 285° |
| 2026-05-06 16:37 | -33.81872 | 122.33758 | 40529 ft | 495 kts | 285° |
| 2026-05-06 16:37 | -33.79776 | 122.25882 | 40533 ft | 495 kts | 285° |
| 2026-05-06 16:38 | -33.77673 | 122.18002 | 40532 ft | 495 kts | 285° |
| 2026-05-06 16:38 | -33.75565 | 122.10125 | 40534 ft | 495 kts | 285° |
| 2026-05-06 16:39 | -33.73466 | 122.02303 | 40531 ft | 495 kts | 285° |
| 2026-05-06 16:39 | -33.71383 | 121.94563 | 40536 ft | 495 kts | 285° |
| 2026-05-06 16:40 | -33.69261 | 121.86694 | 40533 ft | 495 kts | 285° |
| 2026-05-06 16:40 | -33.67105 | 121.78849 | 40524 ft | 495 kts | 287° |
| 2026-05-06 16:41 | -33.64798 | 121.71053 | 40528 ft | 496 kts | 288° |
| 2026-05-06 16:41 | -33.62471 | 121.63325 | 40534 ft | 496 kts | 287° |
| 2026-05-06 16:42 | -33.60142 | 121.55540 | 40537 ft | 496 kts | 287° |
| 2026-05-06 16:42 | -33.57821 | 121.47754 | 40526 ft | 496 kts | 287° |
| 2026-05-06 16:43 | -33.55500 | 121.39973 | 40534 ft | 496 kts | 287° |
| 2026-05-06 16:43 | -33.53188 | 121.32247 | 40532 ft | 496 kts | 287° |
| 2026-05-06 16:44 | -33.50855 | 121.24473 | 40529 ft | 496 kts | 288° |
| 2026-05-06 16:44 | -33.48516 | 121.16701 | 40529 ft | 496 kts | 288° |
| 2026-05-06 16:45 | -33.46173 | 121.08937 | 40529 ft | 496 kts | 288° |
| 2026-05-06 16:45 | -33.43824 | 121.01172 | 40532 ft | 496 kts | 288° |
| 2026-05-06 16:46 | -33.41524 | 120.93589 | 40527 ft | 496 kts | 288° |
| 2026-05-06 16:46 | -33.39164 | 120.85826 | 40535 ft | 496 kts | 288° |
| 2026-05-06 16:47 | -33.36798 | 120.78065 | 40528 ft | 497 kts | 288° |
| 2026-05-06 16:47 | -33.34427 | 120.70306 | 40534 ft | 496 kts | 288° |
| 2026-05-06 16:48 | -33.32066 | 120.62604 | 40534 ft | 497 kts | 288° |
| 2026-05-06 16:48 | -33.29685 | 120.54852 | 40533 ft | 497 kts | 288° |
| 2026-05-06 16:49 | -33.27298 | 120.47102 | 40534 ft | 497 kts | 288° |
| 2026-05-06 16:49 | -33.24905 | 120.39354 | 40526 ft | 497 kts | 288° |
| 2026-05-06 16:50 | -33.22527 | 120.31673 | 40532 ft | 497 kts | 288° |
| 2026-05-06 16:50 | -33.20126 | 120.23936 | 40534 ft | 497 kts | 288° |
| 2026-05-06 16:51 | -33.17719 | 120.16201 | 40534 ft | 497 kts | 288° |
| 2026-05-06 16:51 | -33.15308 | 120.08470 | 40533 ft | 497 kts | 288° |
| 2026-05-06 16:52 | -33.12907 | 120.00792 | 40532 ft | 497 kts | 288° |
| 2026-05-06 16:52 | -33.10524 | 119.93192 | 40529 ft | 497 kts | 289° |
| 2026-05-06 16:53 | -33.08097 | 119.85467 | 40529 ft | 497 kts | 289° |
| 2026-05-06 16:53 | -33.05666 | 119.77754 | 40524 ft | 497 kts | 289° |
| 2026-05-06 16:54 | -33.03229 | 119.70037 | 40524 ft | 497 kts | 289° |
| 2026-05-06 16:54 | -33.00804 | 119.62373 | 40522 ft | 498 kts | 289° |
| 2026-05-06 16:55 | -32.98360 | 119.54672 | 40524 ft | 497 kts | 289° |
| 2026-05-06 16:55 | -32.95905 | 119.46970 | 40521 ft | 497 kts | 289° |
| 2026-05-06 16:56 | -32.93447 | 119.39275 | 40522 ft | 497 kts | 289° |
| 2026-05-06 16:56 | -32.91002 | 119.31634 | 40521 ft | 497 kts | 289° |
| 2026-05-06 16:57 | -32.88538 | 119.23948 | 40512 ft | 497 kts | 289° |
| 2026-05-06 16:57 | -32.86071 | 119.16277 | 40512 ft | 497 kts | 289° |
| 2026-05-06 16:58 | -32.83598 | 119.08603 | 40510 ft | 497 kts | 289° |
| 2026-05-06 16:58 | -32.81137 | 119.00987 | 40519 ft | 497 kts | 289° |
| 2026-05-06 16:59 | -32.78689 | 118.93428 | 40509 ft | 497 kts | 289° |
| 2026-05-06 16:59 | -32.76207 | 118.85781 | 40510 ft | 497 kts | 289° |
| 2026-05-06 17:00 | -32.73733 | 118.78180 | 40511 ft | 496 kts | 289° |
| 2026-05-06 17:00 | -32.71238 | 118.70531 | 40514 ft | 496 kts | 289° |
| 2026-05-06 17:01 | -32.68740 | 118.62894 | 40508 ft | 496 kts | 289° |
| 2026-05-06 17:01 | -32.66241 | 118.55270 | 40510 ft | 496 kts | 289° |
| 2026-05-06 17:02 | -32.63752 | 118.47696 | 40510 ft | 496 kts | 289° |
| 2026-05-06 17:02 | -32.61241 | 118.40071 | 40510 ft | 496 kts | 289° |
| 2026-05-06 17:03 | -32.58724 | 118.32446 | 40504 ft | 496 kts | 289° |
| 2026-05-06 17:03 | -32.56202 | 118.24827 | 40503 ft | 496 kts | 289° |
| 2026-05-06 17:04 | -32.53692 | 118.17260 | 40503 ft | 497 kts | 289° |
| 2026-05-06 17:04 | -32.51160 | 118.09645 | 40501 ft | 497 kts | 289° |
| 2026-05-06 17:05 | -32.48626 | 118.02043 | 40496 ft | 497 kts | 289° |
| 2026-05-06 17:05 | -32.46130 | 117.94571 | 40351 ft | 491 kts | 289° |
| 2026-05-06 17:05 | -32.44884 | 117.90852 | 39998 ft | 481 kts | 289° |
| 2026-05-06 17:06 | -32.43652 | 117.87175 | 39211 ft | 482 kts | 289° |
| 2026-05-06 17:06 | -32.42408 | 117.83462 | 38224 ft | 488 kts | 290° |
| 2026-05-06 17:06 | -32.41163 | 117.79745 | 37478 ft | 497 kts | 290° |
| 2026-05-06 17:06 | -32.39876 | 117.75917 | 36724 ft | 504 kts | 290° |
| 2026-05-06 17:07 | -32.38573 | 117.72042 | 35995 ft | 509 kts | 290° |
| 2026-05-06 17:07 | -32.37257 | 117.68140 | 35275 ft | 512 kts | 291° |
| 2026-05-06 17:07 | -32.36107 | 117.64153 | 34548 ft | 513 kts | 282° |
| 2026-05-06 17:07 | -32.35577 | 117.59985 | 33766 ft | 512 kts | 275° |
| 2026-05-06 17:08 | -32.35275 | 117.55789 | 32980 ft | 512 kts | 273° |
| 2026-05-06 17:08 | -32.35037 | 117.51606 | 32219 ft | 509 kts | 273° |
| 2026-05-06 17:08 | -32.34792 | 117.47451 | 31470 ft | 502 kts | 274° |
| 2026-05-06 17:08 | -32.34521 | 117.43424 | 30751 ft | 496 kts | 274° |
| 2026-05-06 17:09 | -32.34216 | 117.39383 | 29947 ft | 491 kts | 275° |
| 2026-05-06 17:09 | -32.33890 | 117.35387 | 29129 ft | 486 kts | 275° |
| 2026-05-06 17:09 | -32.33553 | 117.31433 | 28332 ft | 481 kts | 275° |
| 2026-05-06 17:09 | -32.33213 | 117.27516 | 27560 ft | 477 kts | 275° |
| 2026-05-06 17:10 | -32.32875 | 117.23635 | 26797 ft | 472 kts | 275° |
| 2026-05-06 17:10 | -32.32541 | 117.19787 | 26062 ft | 468 kts | 275° |
| 2026-05-06 17:10 | -32.32210 | 117.15974 | 25335 ft | 464 kts | 275° |
| 2026-05-06 17:10 | -32.31882 | 117.12192 | 24647 ft | 461 kts | 275° |
| 2026-05-06 17:11 | -32.31560 | 117.08490 | 23955 ft | 457 kts | 275° |
| 2026-05-06 17:11 | -32.31237 | 117.04775 | 23152 ft | 454 kts | 275° |
| 2026-05-06 17:11 | -32.30913 | 117.01072 | 22366 ft | 450 kts | 275° |
| 2026-05-06 17:11 | -32.30602 | 116.97525 | 21633 ft | 447 kts | 275° |
| 2026-05-06 17:12 | -32.30282 | 116.93883 | 20887 ft | 444 kts | 276° |
| 2026-05-06 17:12 | -32.29963 | 116.90266 | 20163 ft | 441 kts | 276° |
| 2026-05-06 17:12 | -32.29645 | 116.86675 | 19453 ft | 438 kts | 275° |
| 2026-05-06 17:12 | -32.29327 | 116.83109 | 18757 ft | 435 kts | 275° |
| 2026-05-06 17:13 | -32.29012 | 116.79571 | 17955 ft | 431 kts | 275° |
| 2026-05-06 17:13 | -32.28698 | 116.76060 | 17195 ft | 428 kts | 275° |
| 2026-05-06 17:13 | -32.28390 | 116.72624 | 16447 ft | 424 kts | 275° |
| 2026-05-06 17:13 | -32.28081 | 116.69191 | 15705 ft | 408 kts | 275° |
| 2026-05-06 17:14 | -32.27791 | 116.65984 | 14945 ft | 378 kts | 275° |
| 2026-05-06 17:14 | -32.27521 | 116.63002 | 14216 ft | 355 kts | 275° |
| 2026-05-06 17:14 | -32.27264 | 116.60177 | 13425 ft | 336 kts | 275° |
| 2026-05-06 17:14 | -32.27021 | 116.57499 | 12660 ft | 321 kts | 275° |
| 2026-05-06 17:15 | -32.26773 | 116.54926 | 11906 ft | 309 kts | 277° |
| 2026-05-06 17:15 | -32.26400 | 116.52462 | 11178 ft | 301 kts | 280° |
| 2026-05-06 17:15 | -32.25969 | 116.50066 | 10553 ft | 295 kts | 280° |
| 2026-05-06 17:15 | -32.25529 | 116.47670 | 10344 ft | 301 kts | 280° |
| 2026-05-06 17:16 | -32.25097 | 116.45291 | 10163 ft | 298 kts | 280° |
| 2026-05-06 17:16 | -32.24674 | 116.42916 | 10040 ft | 293 kts | 281° |
| 2026-05-06 17:16 | -32.24253 | 116.40546 | 10060 ft | 299 kts | 280° |
| 2026-05-06 17:16 | -32.23825 | 116.38121 | 9873 ft | 303 kts | 281° |
| 2026-05-06 17:17 | -32.23395 | 116.35676 | 9477 ft | 304 kts | 280° |
| 2026-05-06 17:17 | -32.22974 | 116.33280 | 9079 ft | 292 kts | 281° |
| 2026-05-06 17:17 | -32.22569 | 116.30967 | 8684 ft | 283 kts | 281° |
| 2026-05-06 17:17 | -32.22171 | 116.28700 | 8309 ft | 282 kts | 281° |
| 2026-05-06 17:18 | -32.21777 | 116.26450 | 7989 ft | 285 kts | 281° |
| 2026-05-06 17:18 | -32.21374 | 116.24157 | 7715 ft | 286 kts | 280° |
| 2026-05-06 17:18 | -32.20970 | 116.21856 | 7445 ft | 288 kts | 280° |
| 2026-05-06 17:18 | -32.20564 | 116.19541 | 7183 ft | 287 kts | 280° |
| 2026-05-06 17:19 | -32.20157 | 116.17234 | 6923 ft | 287 kts | 279° |
| 2026-05-06 17:19 | -32.19753 | 116.14933 | 6642 ft | 285 kts | 281° |
| 2026-05-06 17:19 | -32.19568 | 116.12624 | 6350 ft | 282 kts | 269° |
| 2026-05-06 17:19 | -32.19637 | 116.10303 | 6085 ft | 284 kts | 266° |
| 2026-05-06 17:20 | -32.19720 | 116.07957 | 5814 ft | 287 kts | 268° |
| 2026-05-06 17:20 | -32.19777 | 116.05632 | 5537 ft | 287 kts | 269° |
| 2026-05-06 17:20 | -32.19818 | 116.03280 | 5254 ft | 285 kts | 271° |
| 2026-05-06 17:20 | -32.19568 | 116.00988 | 4972 ft | 277 kts | 285° |
| 2026-05-06 17:21 | -32.19088 | 115.98912 | 4668 ft | 265 kts | 288° |
| 2026-05-06 17:21 | -32.18597 | 115.96859 | 4368 ft | 255 kts | 289° |
| 2026-05-06 17:21 | -32.18140 | 115.94874 | 4072 ft | 246 kts | 289° |
| 2026-05-06 17:21 | -32.17692 | 115.92962 | 3778 ft | 236 kts | 295° |
| 2026-05-06 17:22 | -32.16797 | 115.91465 | 3441 ft | 216 kts | 332° |
| 2026-05-06 17:22 | -32.15468 | 115.90933 | 3185 ft | 202 kts | 5° |
| 2026-05-06 17:22 | -32.14074 | 115.91034 | 3095 ft | 202 kts | 11° |
| 2026-05-06 17:22 | -32.12676 | 115.91222 | 3058 ft | 200 kts | 13° |
| 2026-05-06 17:23 | -32.11343 | 115.91475 | 3021 ft | 186 kts | 17° |
| 2026-05-06 17:23 | -32.10133 | 115.91794 | 2942 ft | 174 kts | 19° |
| 2026-05-06 17:23 | -32.08976 | 115.92129 | 2718 ft | 168 kts | 20° |
| 2026-05-06 17:23 | -32.07844 | 115.92462 | 2494 ft | 167 kts | 20° |
| 2026-05-06 17:24 | -32.06715 | 115.92793 | 2263 ft | 168 kts | 21° |
| 2026-05-06 17:24 | -32.05617 | 115.93114 | 2055 ft | 155 kts | 20° |
| 2026-05-06 17:24 | -32.04626 | 115.93402 | 1823 ft | 137 kts | 21° |
| 2026-05-06 17:24 | -32.03766 | 115.93653 | 1685 ft | 122 kts | 22° |
| 2026-05-06 17:25 | -32.02919 | 115.93906 | 1514 ft | 128 kts | 21° |
| 2026-05-06 17:25 | -32.02083 | 115.94149 | 1346 ft | 123 kts | 22° |
| 2026-05-06 17:25 | -32.01244 | 115.94396 | 1170 ft | 126 kts | 22° |
| 2026-05-06 17:25 | -32.00389 | 115.94647 | 1011 ft | 128 kts | 21° |
| 2026-05-06 17:26 | -31.99519 | 115.94902 | 835 ft | 130 kts | 20° |
| 2026-05-06 17:26 | -31.98639 | 115.95163 | 624 ft | 129 kts | 19° |
| 2026-05-06 17:26 | -31.97758 | 115.95416 | 465 ft | 134 kts | 16° |
| 2026-05-06 17:26 | -31.96866 | 115.95674 | 301 ft | 130 kts | 19° |
| 2026-05-06 17:27 | -31.96012 | 115.95925 | 123 ft | 126 kts | 18° |
| 2026-05-06 17:27 | -31.95201 | 115.96166 | 68 ft | 110 kts | 13° |
| 2026-05-06 17:27 | -31.94607 | 115.96338 | 64 ft | 66 kts | 13° |
| 2026-05-06 17:27 | -31.94306 | 115.96425 | 69 ft | 32 kts | 14° |
| 2026-05-06 17:28 | -31.94135 | 115.96508 | 67 ft | 24 kts | 48° |
| 2026-05-06 17:28 | -31.94049 | 115.96677 | 63 ft | 24 kts | 59° |
| 2026-05-06 17:28 | -31.93964 | 115.96843 | 64 ft | 22 kts | 55° |
| 2026-05-06 17:28 | -31.93920 | 115.96968 | 65 ft | 11 kts | 97° |
| 2026-05-06 17:29 | -31.93938 | 115.97061 | 69 ft | 12 kts | 105° |
| 2026-05-06 17:29 | -31.93960 | 115.97163 | 63 ft | 14 kts | 103° |
| 2026-05-06 17:29 | -31.94023 | 115.97214 | 67 ft | 11 kts | 170° |
| 2026-05-06 17:29 | -31.94066 | 115.97222 | 67 ft | 0 kts | 171° |